sensor_id;sensor_type;location;lat;lon;timestamp;temperature;humidity
70550;DHT22;58101;48.658;2.328;2022-10-31T00:02:07;13.90;99.90
70550;DHT22;58101;48.658;2.328;2022-10-31T00:04:33;13.80;99.90
70550;DHT22;58101;48.658;2.328;2022-10-31T00:06:59;13.80;99.90
70550;DHT22;58101;48.658;2.328;2022-10-31T00:09:24;13.80;99.90
70550;DHT22;58101;48.658;2.328;2022-10-31T00:11:50;13.80;99.90
70550;DHT22;58101;48.658;2.328;2022-10-31T00:14:15;13.70;99.90
70550;DHT22;58101;48.658;2.328;2022-10-31T00:16:41;13.70;99.90
70550;DHT22;58101;48.658;2.328;2022-10-31T00:19:07;13.80;99.90
70550;DHT22;58101;48.658;2.328;2022-10-31T00:21:33;13.60;99.90
70550;DHT22;58101;48.658;2.328;2022-10-31T00:24:00;13.60;99.90
70550;DHT22;58101;48.658;2.328;2022-10-31T00:26:27;13.50;99.90
70550;DHT22;58101;48.658;2.328;2022-10-31T00:28:53;13.50;99.90
70550;DHT22;58101;48.658;2.328;2022-10-31T00:31:19;13.50;99.90
70550;DHT22;58101;48.658;2.328;2022-10-31T00:33:45;13.40;99.90
70550;DHT22;58101;48.658;2.328;2022-10-31T00:36:13;13.40;99.90
70550;DHT22;58101;48.658;2.328;2022-10-31T00:38:39;13.50;99.90
70550;DHT22;58101;48.658;2.328;2022-10-31T00:41:04;13.30;99.90
70550;DHT22;58101;48.658;2.328;2022-10-31T00:43:30;13.30;99.90
70550;DHT22;58101;48.658;2.328;2022-10-31T00:45:56;13.30;99.90
70550;DHT22;58101;48.658;2.328;2022-10-31T00:48:21;13.30;99.90
70550;DHT22;58101;48.658;2.328;2022-10-31T00:50:47;13.40;99.90
70550;DHT22;58101;48.658;2.328;2022-10-31T00:53:12;13.40;99.90
70550;DHT22;58101;48.658;2.328;2022-10-31T00:55:38;13.30;99.90
70550;DHT22;58101;48.658;2.328;2022-10-31T00:58:03;13.50;99.90
70550;DHT22;58101;48.658;2.328;2022-10-31T01:00:29;13.40;99.90
70550;DHT22;58101;48.658;2.328;2022-10-31T01:02:55;13.40;99.90
70550;DHT22;58101;48.658;2.328;2022-10-31T01:05:20;13.40;99.90
70550;DHT22;58101;48.658;2.328;2022-10-31T01:07:46;13.50;99.90
70550;DHT22;58101;48.658;2.328;2022-10-31T01:10:12;13.50;99.90
70550;DHT22;58101;48.658;2.328;2022-10-31T01:12:47;13.50;99.90
70550;DHT22;58101;48.658;2.328;2022-10-31T01:15:16;13.50;99.90
70550;DHT22;58101;48.658;2.328;2022-10-31T01:17:42;13.50;99.90
70550;DHT22;58101;48.658;2.328;2022-10-31T01:20:09;13.40;99.90
70550;DHT22;58101;48.658;2.328;2022-10-31T01:22:35;13.50;99.90
70550;DHT22;58101;48.658;2.328;2022-10-31T01:25:01;13.60;99.90
70550;DHT22;58101;48.658;2.328;2022-10-31T01:27:27;13.50;99.90
70550;DHT22;58101;48.658;2.328;2022-10-31T01:29:52;13.70;99.90
70550;DHT22;58101;48.658;2.328;2022-10-31T01:32:18;13.70;99.90
70550;DHT22;58101;48.658;2.328;2022-10-31T01:34:44;13.50;99.90
70550;DHT22;58101;48.658;2.328;2022-10-31T01:37:10;13.60;99.90
70550;DHT22;58101;48.658;2.328;2022-10-31T01:39:35;13.60;99.90
70550;DHT22;58101;48.658;2.328;2022-10-31T01:42:01;13.60;99.90
70550;DHT22;58101;48.658;2.328;2022-10-31T01:47:01;13.60;99.90
70550;DHT22;58101;48.658;2.328;2022-10-31T01:49:52;13.60;99.90
70550;DHT22;58101;48.658;2.328;2022-10-31T01:55:18;13.70;99.90
70550;DHT22;58101;48.658;2.328;2022-10-31T01:57:48;13.70;99.90
70550;DHT22;58101;48.658;2.328;2022-10-31T02:00:17;13.80;99.90
70550;DHT22;58101;48.658;2.328;2022-10-31T02:02:45;13.60;99.90
70550;DHT22;58101;48.658;2.328;2022-10-31T02:05:18;13.70;99.90
70550;DHT22;58101;48.658;2.328;2022-10-31T02:10:31;13.60;99.90
70550;DHT22;58101;48.658;2.328;2022-10-31T02:12:59;13.70;99.90
70550;DHT22;58101;48.658;2.328;2022-10-31T02:15:26;13.60;99.90
70550;DHT22;58101;48.658;2.328;2022-10-31T02:17:53;13.50;99.90
70550;DHT22;58101;48.658;2.328;2022-10-31T02:20:24;13.60;99.90
70550;DHT22;58101;48.658;2.328;2022-10-31T02:32:00;13.60;99.90
70550;DHT22;58101;48.658;2.328;2022-10-31T02:34:48;13.60;99.90
70550;DHT22;58101;48.658;2.328;2022-10-31T02:40:05;13.60;99.90
70550;DHT22;58101;48.658;2.328;2022-10-31T02:42:46;13.60;99.90
70550;DHT22;58101;48.658;2.328;2022-10-31T02:45:27;13.80;99.90
70550;DHT22;58101;48.658;2.328;2022-10-31T02:48:01;13.60;99.90
70550;DHT22;58101;48.658;2.328;2022-10-31T02:50:33;13.70;99.90
70550;DHT22;58101;48.658;2.328;2022-10-31T02:53:00;13.70;99.90
70550;DHT22;58101;48.658;2.328;2022-10-31T02:57:56;13.80;99.90
70550;DHT22;58101;48.658;2.328;2022-10-31T03:00:22;13.70;99.90
70550;DHT22;58101;48.658;2.328;2022-10-31T03:11:23;13.70;99.90
70550;DHT22;58101;48.658;2.328;2022-10-31T03:13:59;13.70;99.90
70550;DHT22;58101;48.658;2.328;2022-10-31T03:19:07;13.60;99.90
70550;DHT22;58101;48.658;2.328;2022-10-31T03:21:39;13.70;99.90
70550;DHT22;58101;48.658;2.328;2022-10-31T03:24:06;13.70;99.90
70550;DHT22;58101;48.658;2.328;2022-10-31T03:26:36;13.70;99.90
70550;DHT22;58101;48.658;2.328;2022-10-31T03:29:06;13.70;99.90
70550;DHT22;58101;48.658;2.328;2022-10-31T03:34:12;13.70;99.90
70550;DHT22;58101;48.658;2.328;2022-10-31T03:36:40;13.70;99.90
70550;DHT22;58101;48.658;2.328;2022-10-31T03:39:09;13.70;99.90
70550;DHT22;58101;48.658;2.328;2022-10-31T03:41:42;13.70;99.90
70550;DHT22;58101;48.658;2.328;2022-10-31T03:44:12;13.70;99.90
70550;DHT22;58101;48.658;2.328;2022-10-31T03:46:40;13.70;99.90
70550;DHT22;58101;48.658;2.328;2022-10-31T03:49:06;13.70;99.90
70550;DHT22;58101;48.658;2.328;2022-10-31T03:51:56;13.60;99.90
70550;DHT22;58101;48.658;2.328;2022-10-31T03:54:42;13.60;99.90
70550;DHT22;58101;48.658;2.328;2022-10-31T04:00:14;13.60;99.90
70550;DHT22;58101;48.658;2.328;2022-10-31T04:02:44;13.60;99.90
70550;DHT22;58101;48.658;2.328;2022-10-31T04:05:13;13.60;99.90
70550;DHT22;58101;48.658;2.328;2022-10-31T04:07:44;13.50;99.90
70550;DHT22;58101;48.658;2.328;2022-10-31T04:10:14;13.50;99.90
70550;DHT22;58101;48.658;2.328;2022-10-31T04:12:43;13.50;99.90
70550;DHT22;58101;48.658;2.328;2022-10-31T04:15:11;13.50;99.90
70550;DHT22;58101;48.658;2.328;2022-10-31T04:17:40;13.50;99.90
70550;DHT22;58101;48.658;2.328;2022-10-31T04:20:07;13.50;99.90
70550;DHT22;58101;48.658;2.328;2022-10-31T04:22:33;13.50;99.90
70550;DHT22;58101;48.658;2.328;2022-10-31T04:24:58;13.50;99.90
70550;DHT22;58101;48.658;2.328;2022-10-31T04:27:24;13.50;99.90
70550;DHT22;58101;48.658;2.328;2022-10-31T04:29:50;13.50;99.90
70550;DHT22;58101;48.658;2.328;2022-10-31T04:32:15;13.50;99.90
70550;DHT22;58101;48.658;2.328;2022-10-31T04:34:41;13.50;99.90
70550;DHT22;58101;48.658;2.328;2022-10-31T04:37:06;13.50;99.90
70550;DHT22;58101;48.658;2.328;2022-10-31T04:39:32;13.50;99.90
70550;DHT22;58101;48.658;2.328;2022-10-31T04:41:58;13.50;99.90
70550;DHT22;58101;48.658;2.328;2022-10-31T04:44:23;13.50;99.90
70550;DHT22;58101;48.658;2.328;2022-10-31T04:46:49;13.50;99.90
70550;DHT22;58101;48.658;2.328;2022-10-31T04:49:14;13.50;99.90
70550;DHT22;58101;48.658;2.328;2022-10-31T04:51:40;13.60;99.90
70550;DHT22;58101;48.658;2.328;2022-10-31T04:54:05;13.60;99.90
70550;DHT22;58101;48.658;2.328;2022-10-31T04:56:31;13.50;99.90
70550;DHT22;58101;48.658;2.328;2022-10-31T04:58:57;13.60;99.90
70550;DHT22;58101;48.658;2.328;2022-10-31T05:01:22;13.60;99.90
70550;DHT22;58101;48.658;2.328;2022-10-31T05:03:48;13.60;99.90
70550;DHT22;58101;48.658;2.328;2022-10-31T05:06:13;13.60;99.90
70550;DHT22;58101;48.658;2.328;2022-10-31T05:08:39;13.60;99.90
70550;DHT22;58101;48.658;2.328;2022-10-31T05:11:05;13.60;99.90
70550;DHT22;58101;48.658;2.328;2022-10-31T05:13:30;13.60;99.90
70550;DHT22;58101;48.658;2.328;2022-10-31T05:15:56;13.60;99.90
70550;DHT22;58101;48.658;2.328;2022-10-31T05:18:22;13.60;99.90
70550;DHT22;58101;48.658;2.328;2022-10-31T05:20:48;13.60;99.90
70550;DHT22;58101;48.658;2.328;2022-10-31T05:23:14;13.60;99.90
70550;DHT22;58101;48.658;2.328;2022-10-31T05:25:40;13.60;99.90
70550;DHT22;58101;48.658;2.328;2022-10-31T05:28:06;13.60;99.90
70550;DHT22;58101;48.658;2.328;2022-10-31T05:30:32;13.60;99.90
70550;DHT22;58101;48.658;2.328;2022-10-31T05:32:58;13.60;99.90
70550;DHT22;58101;48.658;2.328;2022-10-31T05:35:29;13.70;99.90
70550;DHT22;58101;48.658;2.328;2022-10-31T05:37:55;13.60;99.90
70550;DHT22;58101;48.658;2.328;2022-10-31T05:40:23;13.60;99.90
70550;DHT22;58101;48.658;2.328;2022-10-31T05:42:52;13.60;99.90
70550;DHT22;58101;48.658;2.328;2022-10-31T05:45:19;13.70;99.90
70550;DHT22;58101;48.658;2.328;2022-10-31T05:47:52;13.80;99.90
70550;DHT22;58101;48.658;2.328;2022-10-31T05:50:18;13.70;99.90
70550;DHT22;58101;48.658;2.328;2022-10-31T05:52:43;13.70;99.90
70550;DHT22;58101;48.658;2.328;2022-10-31T05:55:09;13.70;99.90
70550;DHT22;58101;48.658;2.328;2022-10-31T05:57:35;13.90;99.90
70550;DHT22;58101;48.658;2.328;2022-10-31T06:00:01;13.70;99.90
70550;DHT22;58101;48.658;2.328;2022-10-31T06:02:26;13.70;99.90
70550;DHT22;58101;48.658;2.328;2022-10-31T06:04:52;13.80;99.90
70550;DHT22;58101;48.658;2.328;2022-10-31T06:07:18;13.70;99.90
70550;DHT22;58101;48.658;2.328;2022-10-31T06:09:46;13.70;99.90
70550;DHT22;58101;48.658;2.328;2022-10-31T06:12:13;13.70;99.90
70550;DHT22;58101;48.658;2.328;2022-10-31T06:14:39;13.70;99.90
70550;DHT22;58101;48.658;2.328;2022-10-31T06:17:04;13.70;99.90
70550;DHT22;58101;48.658;2.328;2022-10-31T06:19:30;13.70;99.90
70550;DHT22;58101;48.658;2.328;2022-10-31T06:21:55;13.60;99.90
70550;DHT22;58101;48.658;2.328;2022-10-31T06:24:21;13.60;99.90
70550;DHT22;58101;48.658;2.328;2022-10-31T06:26:47;13.60;99.90
70550;DHT22;58101;48.658;2.328;2022-10-31T06:29:12;13.70;99.90
70550;DHT22;58101;48.658;2.328;2022-10-31T06:31:38;13.60;99.90
70550;DHT22;58101;48.658;2.328;2022-10-31T06:34:04;13.50;99.90
70550;DHT22;58101;48.658;2.328;2022-10-31T06:36:29;13.60;99.90
70550;DHT22;58101;48.658;2.328;2022-10-31T06:38:55;13.60;99.90
70550;DHT22;58101;48.658;2.328;2022-10-31T06:41:20;13.60;99.90
70550;DHT22;58101;48.658;2.328;2022-10-31T06:43:46;13.60;99.90
70550;DHT22;58101;48.658;2.328;2022-10-31T06:46:12;13.60;99.90
70550;DHT22;58101;48.658;2.328;2022-10-31T06:48:39;13.60;99.90
70550;DHT22;58101;48.658;2.328;2022-10-31T06:51:05;13.80;99.90
70550;DHT22;58101;48.658;2.328;2022-10-31T06:53:31;13.60;99.90
70550;DHT22;58101;48.658;2.328;2022-10-31T06:55:56;13.60;99.90
70550;DHT22;58101;48.658;2.328;2022-10-31T06:58:22;13.70;99.90
70550;DHT22;58101;48.658;2.328;2022-10-31T07:00:48;13.70;99.90
70550;DHT22;58101;48.658;2.328;2022-10-31T07:03:15;13.70;99.90
70550;DHT22;58101;48.658;2.328;2022-10-31T07:05:41;13.70;99.90
70550;DHT22;58101;48.658;2.328;2022-10-31T07:08:10;13.70;99.90
70550;DHT22;58101;48.658;2.328;2022-10-31T07:10:37;13.70;99.90
70550;DHT22;58101;48.658;2.328;2022-10-31T07:13:05;13.60;99.90
70550;DHT22;58101;48.658;2.328;2022-10-31T07:15:36;13.70;99.90
70550;DHT22;58101;48.658;2.328;2022-10-31T07:18:03;13.60;99.90
70550;DHT22;58101;48.658;2.328;2022-10-31T07:20:30;13.70;99.90
70550;DHT22;58101;48.658;2.328;2022-10-31T07:22:58;13.80;99.90
70550;DHT22;58101;48.658;2.328;2022-10-31T07:25:24;13.70;99.90
70550;DHT22;58101;48.658;2.328;2022-10-31T07:27:50;13.60;99.90
70550;DHT22;58101;48.658;2.328;2022-10-31T07:30:16;13.80;99.90
70550;DHT22;58101;48.658;2.328;2022-10-31T07:32:48;13.80;99.90
70550;DHT22;58101;48.658;2.328;2022-10-31T07:35:25;13.80;99.90
70550;DHT22;58101;48.658;2.328;2022-10-31T07:37:51;13.80;99.90
70550;DHT22;58101;48.658;2.328;2022-10-31T07:40:17;13.90;99.90
70550;DHT22;58101;48.658;2.328;2022-10-31T07:42:46;13.90;99.90
70550;DHT22;58101;48.658;2.328;2022-10-31T07:45:14;13.90;99.90
70550;DHT22;58101;48.658;2.328;2022-10-31T07:47:45;13.90;99.90
70550;DHT22;58101;48.658;2.328;2022-10-31T07:50:13;14.00;99.90
70550;DHT22;58101;48.658;2.328;2022-10-31T07:52:39;13.90;99.90
70550;DHT22;58101;48.658;2.328;2022-10-31T07:55:05;14.20;99.90
70550;DHT22;58101;48.658;2.328;2022-10-31T07:57:31;14.10;99.90
70550;DHT22;58101;48.658;2.328;2022-10-31T07:59:57;14.10;99.90
70550;DHT22;58101;48.658;2.328;2022-10-31T08:02:22;14.10;99.90
70550;DHT22;58101;48.658;2.328;2022-10-31T08:04:48;14.10;99.90
70550;DHT22;58101;48.658;2.328;2022-10-31T08:07:14;14.20;99.90
70550;DHT22;58101;48.658;2.328;2022-10-31T08:09:40;14.20;99.90
70550;DHT22;58101;48.658;2.328;2022-10-31T08:12:06;14.20;99.90
70550;DHT22;58101;48.658;2.328;2022-10-31T08:14:31;14.30;99.90
70550;DHT22;58101;48.658;2.328;2022-10-31T08:16:57;14.40;99.90
70550;DHT22;58101;48.658;2.328;2022-10-31T08:19:22;14.40;99.90
70550;DHT22;58101;48.658;2.328;2022-10-31T08:21:52;14.40;99.90
70550;DHT22;58101;48.658;2.328;2022-10-31T08:24:18;14.40;99.90
70550;DHT22;58101;48.658;2.328;2022-10-31T08:26:43;14.50;99.90
70550;DHT22;58101;48.658;2.328;2022-10-31T08:29:09;14.50;99.90
70550;DHT22;58101;48.658;2.328;2022-10-31T08:31:35;14.50;99.90
70550;DHT22;58101;48.658;2.328;2022-10-31T08:34:01;14.50;99.90
70550;DHT22;58101;48.658;2.328;2022-10-31T08:36:27;14.50;99.90
70550;DHT22;58101;48.658;2.328;2022-10-31T08:38:53;14.60;99.90
70550;DHT22;58101;48.658;2.328;2022-10-31T08:41:18;14.60;99.90
70550;DHT22;58101;48.658;2.328;2022-10-31T08:43:44;14.60;99.90
70550;DHT22;58101;48.658;2.328;2022-10-31T08:46:10;14.70;99.90
70550;DHT22;58101;48.658;2.328;2022-10-31T08:48:36;14.70;99.90
70550;DHT22;58101;48.658;2.328;2022-10-31T08:51:01;14.80;99.90
70550;DHT22;58101;48.658;2.328;2022-10-31T08:53:27;14.90;99.90
70550;DHT22;58101;48.658;2.328;2022-10-31T08:55:55;15.00;99.90
70550;DHT22;58101;48.658;2.328;2022-10-31T08:58:21;15.10;99.90
70550;DHT22;58101;48.658;2.328;2022-10-31T09:00:48;15.20;99.90
70550;DHT22;58101;48.658;2.328;2022-10-31T09:03:16;15.40;99.90
70550;DHT22;58101;48.658;2.328;2022-10-31T09:05:42;15.60;99.90
70550;DHT22;58101;48.658;2.328;2022-10-31T09:08:08;15.80;99.90
70550;DHT22;58101;48.658;2.328;2022-10-31T09:10:35;16.10;99.90
70550;DHT22;58101;48.658;2.328;2022-10-31T09:15:36;17.40;99.90
70550;DHT22;58101;48.658;2.328;2022-10-31T09:18:04;17.80;99.90
70550;DHT22;58101;48.658;2.328;2022-10-31T09:20:30;18.00;99.90
70550;DHT22;58101;48.658;2.328;2022-10-31T09:23:04;18.00;99.90
70550;DHT22;58101;48.658;2.328;2022-10-31T09:25:32;18.10;99.60
70550;DHT22;58101;48.658;2.328;2022-10-31T09:27:59;18.40;99.80
70550;DHT22;58101;48.658;2.328;2022-10-31T09:30:28;19.50;99.10
70550;DHT22;58101;48.658;2.328;2022-10-31T09:32:59;21.00;94.60
70550;DHT22;58101;48.658;2.328;2022-10-31T09:35:25;22.50;90.20
70550;DHT22;58101;48.658;2.328;2022-10-31T09:37:58;23.90;82.40
70550;DHT22;58101;48.658;2.328;2022-10-31T09:40:37;25.20;75.60
70550;DHT22;58101;48.658;2.328;2022-10-31T09:46:15;27.00;59.60
70550;DHT22;58101;48.658;2.328;2022-10-31T09:51:44;28.30;55.70
70550;DHT22;58101;48.658;2.328;2022-10-31T09:54:14;28.50;49.70
70550;DHT22;58101;48.658;2.328;2022-10-31T09:56:41;28.60;50.20
70550;DHT22;58101;48.658;2.328;2022-10-31T09:59:17;29.20;50.00
70550;DHT22;58101;48.658;2.328;2022-10-31T10:02:26;29.70;48.10
70550;DHT22;58101;48.658;2.328;2022-10-31T10:05:00;30.20;47.00
70550;DHT22;58101;48.658;2.328;2022-10-31T10:07:38;30.70;45.60
70550;DHT22;58101;48.658;2.328;2022-10-31T10:10:20;30.90;43.50
70550;DHT22;58101;48.658;2.328;2022-10-31T10:16:12;28.50;45.50
70550;DHT22;58101;48.658;2.328;2022-10-31T10:21:51;27.20;50.60
70550;DHT22;58101;48.658;2.328;2022-10-31T10:24:27;27.90;50.30
70550;DHT22;58101;48.658;2.328;2022-10-31T10:35:31;29.90;44.20
70550;DHT22;58101;48.658;2.328;2022-10-31T10:40:47;30.40;42.70
70550;DHT22;58101;48.658;2.328;2022-10-31T10:43:18;30.40;41.30
70550;DHT22;58101;48.658;2.328;2022-10-31T11:00:20;32.60;36.20
70550;DHT22;58101;48.658;2.328;2022-10-31T11:02:46;32.20;36.20
70550;DHT22;58101;48.658;2.328;2022-10-31T11:07:51;32.00;36.80
70550;DHT22;58101;48.658;2.328;2022-10-31T11:10:17;31.80;36.30
70550;DHT22;58101;48.658;2.328;2022-10-31T11:13:15;31.10;37.30
70550;DHT22;58101;48.658;2.328;2022-10-31T11:15:35;30.70;37.90
70550;DHT22;58101;48.658;2.328;2022-10-31T11:18:02;30.10;39.60
70550;DHT22;58101;48.658;2.328;2022-10-31T11:20:33;30.00;40.10
70550;DHT22;58101;48.658;2.328;2022-10-31T11:23:18;29.30;40.40
70550;DHT22;58101;48.658;2.328;2022-10-31T11:26:02;29.20;41.70
70550;DHT22;58101;48.658;2.328;2022-10-31T11:28:30;29.40;41.70
70550;DHT22;58101;48.658;2.328;2022-10-31T11:30:59;30.20;41.00
70550;DHT22;58101;48.658;2.328;2022-10-31T11:33:44;30.30;39.20
70550;DHT22;58101;48.658;2.328;2022-10-31T11:36:21;30.50;39.80
70550;DHT22;58101;48.658;2.328;2022-10-31T11:38:48;31.00;38.90
70550;DHT22;58101;48.658;2.328;2022-10-31T11:41:29;31.10;38.90
70550;DHT22;58101;48.658;2.328;2022-10-31T11:44:19;30.90;38.70
70550;DHT22;58101;48.658;2.328;2022-10-31T11:46:54;30.80;39.20
70550;DHT22;58101;48.658;2.328;2022-10-31T11:49:40;30.80;38.10
70550;DHT22;58101;48.658;2.328;2022-10-31T11:57:51;29.50;39.70
70550;DHT22;58101;48.658;2.328;2022-10-31T12:00:27;29.50;40.70
70550;DHT22;58101;48.658;2.328;2022-10-31T12:03:18;28.80;41.50
70550;DHT22;58101;48.658;2.328;2022-10-31T12:06:13;28.10;44.60
70550;DHT22;58101;48.658;2.328;2022-10-31T12:08:43;28.10;44.30
70550;DHT22;58101;48.658;2.328;2022-10-31T12:11:42;27.80;44.50
70550;DHT22;58101;48.658;2.328;2022-10-31T12:16:55;27.40;46.60
70550;DHT22;58101;48.658;2.328;2022-10-31T12:19:27;27.50;45.90
70550;DHT22;58101;48.658;2.328;2022-10-31T12:22:22;27.50;46.80
70550;DHT22;58101;48.658;2.328;2022-10-31T12:30:46;26.50;48.50
70550;DHT22;58101;48.658;2.328;2022-10-31T12:36:11;26.70;49.70
70550;DHT22;58101;48.658;2.328;2022-10-31T12:38:55;26.90;48.70
70550;DHT22;58101;48.658;2.328;2022-10-31T12:41:43;26.50;49.10
70550;DHT22;58101;48.658;2.328;2022-10-31T12:47:18;25.00;53.70
70550;DHT22;58101;48.658;2.328;2022-10-31T12:55:29;23.20;61.50
70550;DHT22;58101;48.658;2.328;2022-10-31T12:58:02;23.10;62.40
70550;DHT22;58101;48.658;2.328;2022-10-31T13:00:31;23.00;63.60
70550;DHT22;58101;48.658;2.328;2022-10-31T13:05:49;23.40;63.60
70550;DHT22;58101;48.658;2.328;2022-10-31T13:14:05;23.50;63.30
70550;DHT22;58101;48.658;2.328;2022-10-31T13:16:38;23.40;64.10
70550;DHT22;58101;48.658;2.328;2022-10-31T13:19:17;23.30;65.40
70550;DHT22;58101;48.658;2.328;2022-10-31T13:22:19;23.20;65.30
70550;DHT22;58101;48.658;2.328;2022-10-31T13:27:59;22.90;66.70
70550;DHT22;58101;48.658;2.328;2022-10-31T13:30:29;22.60;67.40
70550;DHT22;58101;48.658;2.328;2022-10-31T13:43:11;22.10;71.60
70550;DHT22;58101;48.658;2.328;2022-10-31T13:45:49;22.10;71.60
70550;DHT22;58101;48.658;2.328;2022-10-31T13:50:41;22.00;72.40
70550;DHT22;58101;48.658;2.328;2022-10-31T13:55:49;21.90;73.30
70550;DHT22;58101;48.658;2.328;2022-10-31T13:58:33;21.90;73.20
70550;DHT22;58101;48.658;2.328;2022-10-31T14:01:13;21.90;73.30
70550;DHT22;58101;48.658;2.328;2022-10-31T14:03:43;21.90;73.00
70550;DHT22;58101;48.658;2.328;2022-10-31T14:06:10;21.80;73.50
70550;DHT22;58101;48.658;2.328;2022-10-31T14:08:40;21.80;74.00
70550;DHT22;58101;48.658;2.328;2022-10-31T14:11:08;21.80;74.50
70550;DHT22;58101;48.658;2.328;2022-10-31T14:13:42;21.80;75.30
70550;DHT22;58101;48.658;2.328;2022-10-31T14:16:29;21.80;74.50
70550;DHT22;58101;48.658;2.328;2022-10-31T14:19:05;21.90;74.00
70550;DHT22;58101;48.658;2.328;2022-10-31T14:21:38;21.90;74.10
70550;DHT22;58101;48.658;2.328;2022-10-31T14:24:30;21.90;74.60
70550;DHT22;58101;48.658;2.328;2022-10-31T14:27:03;21.80;73.00
70550;DHT22;58101;48.658;2.328;2022-10-31T14:29:32;21.70;73.90
70550;DHT22;58101;48.658;2.328;2022-10-31T14:32:25;21.60;73.70
70550;DHT22;58101;48.658;2.328;2022-10-31T14:34:52;21.60;73.40
70550;DHT22;58101;48.658;2.328;2022-10-31T14:45:35;21.40;75.00
70550;DHT22;58101;48.658;2.328;2022-10-31T14:50:56;21.30;75.30
70550;DHT22;58101;48.658;2.328;2022-10-31T14:53:29;21.30;75.20
70550;DHT22;58101;48.658;2.328;2022-10-31T14:55:57;21.30;75.00
70550;DHT22;58101;48.658;2.328;2022-10-31T14:58:39;21.30;76.40
70550;DHT22;58101;48.658;2.328;2022-10-31T15:01:06;21.20;75.70
70550;DHT22;58101;48.658;2.328;2022-10-31T15:03:44;21.20;75.70
70550;DHT22;58101;48.658;2.328;2022-10-31T15:06:14;21.20;75.30
70550;DHT22;58101;48.658;2.328;2022-10-31T15:11:15;21.10;76.40
70550;DHT22;58101;48.658;2.328;2022-10-31T15:13:49;21.10;76.50
70550;DHT22;58101;48.658;2.328;2022-10-31T15:16:21;21.00;76.60
70550;DHT22;58101;48.658;2.328;2022-10-31T15:18:57;21.00;76.90
70550;DHT22;58101;48.658;2.328;2022-10-31T15:21:25;21.00;77.50
70550;DHT22;58101;48.658;2.328;2022-10-31T15:23:55;21.00;78.50
70550;DHT22;58101;48.658;2.328;2022-10-31T15:26:23;20.90;79.30
70550;DHT22;58101;48.658;2.328;2022-10-31T15:29:03;20.80;79.50
70550;DHT22;58101;48.658;2.328;2022-10-31T15:31:30;20.80;79.60
70550;DHT22;58101;48.658;2.328;2022-10-31T15:34:00;20.70;80.20
70550;DHT22;58101;48.658;2.328;2022-10-31T15:36:27;20.70;80.60
70550;DHT22;58101;48.658;2.328;2022-10-31T15:38:56;20.70;80.60
70550;DHT22;58101;48.658;2.328;2022-10-31T15:41:42;20.60;80.80
70550;DHT22;58101;48.658;2.328;2022-10-31T15:44:15;20.60;80.80
70550;DHT22;58101;48.658;2.328;2022-10-31T15:46:42;20.50;80.20
70550;DHT22;58101;48.658;2.328;2022-10-31T15:49:29;20.50;80.70
70550;DHT22;58101;48.658;2.328;2022-10-31T15:51:56;20.50;80.40
70550;DHT22;58101;48.658;2.328;2022-10-31T15:54:25;20.40;79.20
70550;DHT22;58101;48.658;2.328;2022-10-31T15:56:51;20.40;79.70
70550;DHT22;58101;48.658;2.328;2022-10-31T15:59:21;20.30;79.00
70550;DHT22;58101;48.658;2.328;2022-10-31T16:02:02;20.30;79.20
70550;DHT22;58101;48.658;2.328;2022-10-31T16:04:28;20.20;78.80
70550;DHT22;58101;48.658;2.328;2022-10-31T16:07:21;20.20;79.10
70550;DHT22;58101;48.658;2.328;2022-10-31T16:09:51;20.20;78.70
70550;DHT22;58101;48.658;2.328;2022-10-31T16:12:17;20.20;78.10
70550;DHT22;58101;48.658;2.328;2022-10-31T16:14:42;20.10;78.70
70550;DHT22;58101;48.658;2.328;2022-10-31T16:17:17;20.10;78.80
70550;DHT22;58101;48.658;2.328;2022-10-31T16:19:50;20.10;78.80
70550;DHT22;58101;48.658;2.328;2022-10-31T16:22:27;20.00;78.70
70550;DHT22;58101;48.658;2.328;2022-10-31T16:27:28;20.00;79.30
70550;DHT22;58101;48.658;2.328;2022-10-31T16:29:55;19.90;79.20
70550;DHT22;58101;48.658;2.328;2022-10-31T16:32:26;19.90;79.40
70550;DHT22;58101;48.658;2.328;2022-10-31T16:37:37;19.90;79.80
70550;DHT22;58101;48.658;2.328;2022-10-31T16:40:03;19.80;79.90
70550;DHT22;58101;48.658;2.328;2022-10-31T16:42:28;19.80;79.70
70550;DHT22;58101;48.658;2.328;2022-10-31T16:44:54;19.80;80.20
70550;DHT22;58101;48.658;2.328;2022-10-31T16:47:20;19.80;80.70
70550;DHT22;58101;48.658;2.328;2022-10-31T16:49:48;19.70;80.70
70550;DHT22;58101;48.658;2.328;2022-10-31T16:52:16;19.70;80.60
70550;DHT22;58101;48.658;2.328;2022-10-31T16:54:42;19.70;81.40
70550;DHT22;58101;48.658;2.328;2022-10-31T16:57:13;19.70;82.40
70550;DHT22;58101;48.658;2.328;2022-10-31T16:59:39;19.70;83.60
70550;DHT22;58101;48.658;2.328;2022-10-31T17:02:12;19.60;86.90
70550;DHT22;58101;48.658;2.328;2022-10-31T17:04:39;19.50;86.60
70550;DHT22;58101;48.658;2.328;2022-10-31T17:07:04;19.40;88.60
70550;DHT22;58101;48.658;2.328;2022-10-31T17:09:30;19.40;89.40
70550;DHT22;58101;48.658;2.328;2022-10-31T17:11:55;19.30;89.00
70550;DHT22;58101;48.658;2.328;2022-10-31T17:14:21;19.20;90.40
70550;DHT22;58101;48.658;2.328;2022-10-31T17:16:47;19.10;91.40
70550;DHT22;58101;48.658;2.328;2022-10-31T17:19:13;18.90;98.90
70550;DHT22;58101;48.658;2.328;2022-10-31T17:21:39;18.50;99.90
70550;DHT22;58101;48.658;2.328;2022-10-31T17:24:05;18.00;99.90
70550;DHT22;58101;48.658;2.328;2022-10-31T17:26:31;17.70;99.90
70550;DHT22;58101;48.658;2.328;2022-10-31T17:28:57;17.60;99.90
70550;DHT22;58101;48.658;2.328;2022-10-31T17:31:31;17.40;99.90
70550;DHT22;58101;48.658;2.328;2022-10-31T17:33:58;17.30;99.90
70550;DHT22;58101;48.658;2.328;2022-10-31T17:36:24;17.20;99.90
70550;DHT22;58101;48.658;2.328;2022-10-31T17:38:50;17.20;99.90
70550;DHT22;58101;48.658;2.328;2022-10-31T17:41:15;17.10;99.90
70550;DHT22;58101;48.658;2.328;2022-10-31T17:43:41;17.10;99.90
70550;DHT22;58101;48.658;2.328;2022-10-31T17:46:07;17.10;99.90
70550;DHT22;58101;48.658;2.328;2022-10-31T17:48:34;17.10;99.90
70550;DHT22;58101;48.658;2.328;2022-10-31T17:51:03;17.10;99.90
70550;DHT22;58101;48.658;2.328;2022-10-31T17:53:31;17.20;99.90
70550;DHT22;58101;48.658;2.328;2022-10-31T17:56:07;17.20;99.90
70550;DHT22;58101;48.658;2.328;2022-10-31T17:58:35;17.20;99.90
70550;DHT22;58101;48.658;2.328;2022-10-31T18:01:06;17.20;99.90
70550;DHT22;58101;48.658;2.328;2022-10-31T18:03:32;17.20;99.90
70550;DHT22;58101;48.658;2.328;2022-10-31T18:05:58;17.20;99.90
70550;DHT22;58101;48.658;2.328;2022-10-31T18:08:30;17.20;99.90
70550;DHT22;58101;48.658;2.328;2022-10-31T18:10:56;17.20;99.90
70550;DHT22;58101;48.658;2.328;2022-10-31T18:13:27;17.10;99.90
70550;DHT22;58101;48.658;2.328;2022-10-31T18:15:53;17.20;99.90
70550;DHT22;58101;48.658;2.328;2022-10-31T18:18:19;17.10;99.90
70550;DHT22;58101;48.658;2.328;2022-10-31T18:20:45;17.10;99.90